Malone Dufort (MAL)
Malone, NY
Field Elevation: 791
Lat: 44°51.22N  Long: 74°19.74W
CTAF/Unicom Freq: 122.8000
   
    
Weather Advisories
2017-03-24   10:09 Z
Altimeter 30.23" Hg
Wind 200° @ 14 KT
Gusts 20 KT
Visibility 10 SM
Ceiling --
Temperature 1° C (34° F)
Dewpoint -15° C (5° F)
Relative Humidity 30%
Density Altitude --
Condensation Altitude 8,600 feet
Wind Chill: -5° C (23° F)
Wind and Runways
Indicated Runway = 23
Headwind = 12 kt
Crosswind = 7 kt
History
 
 
 
More Info
 
NOAA Forecast
 
Airport IQ 5010
 
about Belfort
 
FAA Disclaimer: The data displayed is for advisory purposes only and is not to be used for flight planning or operations. For official data, please call (not available) to hear the current automated AWOS voice message.
  METAR MAL 241009Z AUTO 20014G20KT 10 SM 01/M15 A3023